sensor_id;sensor_type;location;lat;lon;timestamp;P1;durP1;ratioP1;P2;durP2;ratioP2
50649;SDS011;36621;60.058;30.346;2023-07-13T00:04:53;6.50;;;2.70;;
50649;SDS011;36621;60.058;30.346;2023-07-13T00:12:26;7.78;;;3.75;;
50649;SDS011;36621;60.058;30.346;2023-07-13T00:20:00;9.60;;;4.65;;
50649;SDS011;36621;60.058;30.346;2023-07-13T00:27:35;3.85;;;3.10;;
50649;SDS011;36621;60.058;30.346;2023-07-13T00:35:08;8.95;;;3.00;;
50649;SDS011;36621;60.058;30.346;2023-07-13T00:42:41;6.15;;;2.80;;
50649;SDS011;36621;60.058;30.346;2023-07-13T00:50:14;5.30;;;2.88;;
50649;SDS011;36621;60.058;30.346;2023-07-13T00:57:49;6.43;;;3.38;;
50649;SDS011;36621;60.058;30.346;2023-07-13T01:05:22;11.20;;;3.13;;
50649;SDS011;36621;60.058;30.346;2023-07-13T01:12:55;4.40;;;2.60;;
50649;SDS011;36621;60.058;30.346;2023-07-13T01:20:28;5.30;;;2.85;;
50649;SDS011;36621;60.058;30.346;2023-07-13T01:28:01;9.60;;;3.05;;
50649;SDS011;36621;60.058;30.346;2023-07-13T01:35:34;11.60;;;6.00;;
50649;SDS011;36621;60.058;30.346;2023-07-13T01:43:07;14.32;;;4.63;;
50649;SDS011;36621;60.058;30.346;2023-07-13T01:50:39;12.38;;;4.15;;
50649;SDS011;36621;60.058;30.346;2023-07-13T01:58:13;13.50;;;4.50;;
50649;SDS011;36621;60.058;30.346;2023-07-13T02:05:45;10.18;;;4.97;;
50649;SDS011;36621;60.058;30.346;2023-07-13T02:13:18;13.93;;;4.70;;
50649;SDS011;36621;60.058;30.346;2023-07-13T02:20:50;12.40;;;4.80;;
50649;SDS011;36621;60.058;30.346;2023-07-13T02:28:23;13.98;;;4.25;;
50649;SDS011;36621;60.058;30.346;2023-07-13T02:35:56;11.32;;;4.72;;
50649;SDS011;36621;60.058;30.346;2023-07-13T02:43:31;9.90;;;3.85;;
50649;SDS011;36621;60.058;30.346;2023-07-13T02:51:06;7.15;;;2.70;;
50649;SDS011;36621;60.058;30.346;2023-07-13T02:58:40;5.60;;;2.97;;
50649;SDS011;36621;60.058;30.346;2023-07-13T03:06:13;4.35;;;2.40;;
50649;SDS011;36621;60.058;30.346;2023-07-13T03:13:52;4.70;;;2.53;;
50649;SDS011;36621;60.058;30.346;2023-07-13T03:21:25;3.85;;;2.47;;
50649;SDS011;36621;60.058;30.346;2023-07-13T03:28:59;6.78;;;2.15;;
50649;SDS011;36621;60.058;30.346;2023-07-13T03:36:32;3.92;;;2.42;;
50649;SDS011;36621;60.058;30.346;2023-07-13T03:44:09;6.53;;;2.78;;
50649;SDS011;36621;60.058;30.346;2023-07-13T03:51:41;4.13;;;2.00;;
50649;SDS011;36621;60.058;30.346;2023-07-13T03:59:14;8.48;;;2.50;;
50649;SDS011;36621;60.058;30.346;2023-07-13T04:06:46;4.50;;;2.00;;
50649;SDS011;36621;60.058;30.346;2023-07-13T04:14:19;4.93;;;1.83;;
50649;SDS011;36621;60.058;30.346;2023-07-13T04:21:51;5.28;;;1.58;;
50649;SDS011;36621;60.058;30.346;2023-07-13T04:29:25;4.13;;;1.90;;
50649;SDS011;36621;60.058;30.346;2023-07-13T04:36:57;3.67;;;1.75;;
50649;SDS011;36621;60.058;30.346;2023-07-13T04:44:29;4.70;;;1.83;;
50649;SDS011;36621;60.058;30.346;2023-07-13T04:52:02;4.93;;;1.48;;
50649;SDS011;36621;60.058;30.346;2023-07-13T04:59:39;3.87;;;1.50;;
50649;SDS011;36621;60.058;30.346;2023-07-13T05:07:11;3.28;;;1.75;;
50649;SDS011;36621;60.058;30.346;2023-07-13T05:14:44;6.10;;;1.70;;
50649;SDS011;36621;60.058;30.346;2023-07-13T05:22:16;8.48;;;2.35;;
50649;SDS011;36621;60.058;30.346;2023-07-13T05:29:49;3.90;;;1.85;;
50649;SDS011;36621;60.058;30.346;2023-07-13T05:37:21;2.58;;;1.50;;
50649;SDS011;36621;60.058;30.346;2023-07-13T05:44:54;8.85;;;1.80;;
50649;SDS011;36621;60.058;30.346;2023-07-13T05:52:26;2.00;;;1.33;;
50649;SDS011;36621;60.058;30.346;2023-07-13T05:59:59;5.43;;;1.90;;
50649;SDS011;36621;60.058;30.346;2023-07-13T06:07:31;5.57;;;1.90;;
50649;SDS011;36621;60.058;30.346;2023-07-13T06:15:05;7.97;;;1.92;;
50649;SDS011;36621;60.058;30.346;2023-07-13T06:22:38;6.47;;;2.33;;
50649;SDS011;36621;60.058;30.346;2023-07-13T06:30:12;9.23;;;3.17;;
50649;SDS011;36621;60.058;30.346;2023-07-13T17:39:12;5.32;;;1.90;;
50649;SDS011;36621;60.058;30.346;2023-07-13T17:46:47;8.43;;;2.58;;
50649;SDS011;36621;60.058;30.346;2023-07-13T17:54:20;6.50;;;2.30;;
50649;SDS011;36621;60.058;30.346;2023-07-13T18:01:53;6.43;;;2.70;;
50649;SDS011;36621;60.058;30.346;2023-07-13T18:09:26;9.18;;;2.58;;
50649;SDS011;36621;60.058;30.346;2023-07-13T18:17:00;5.18;;;2.25;;
50649;SDS011;36621;60.058;30.346;2023-07-13T18:24:34;8.15;;;2.42;;
50649;SDS011;36621;60.058;30.346;2023-07-13T18:32:06;7.50;;;2.17;;
50649;SDS011;36621;60.058;30.346;2023-07-13T18:39:49;6.47;;;1.95;;
50649;SDS011;36621;60.058;30.346;2023-07-13T18:47:22;4.88;;;2.40;;
50649;SDS011;36621;60.058;30.346;2023-07-13T18:54:56;8.07;;;2.08;;
50649;SDS011;36621;60.058;30.346;2023-07-13T19:02:30;3.65;;;2.10;;
50649;SDS011;36621;60.058;30.346;2023-07-13T19:10:03;5.75;;;2.72;;
50649;SDS011;36621;60.058;30.346;2023-07-13T19:17:38;5.35;;;2.65;;
50649;SDS011;36621;60.058;30.346;2023-07-13T19:25:12;7.28;;;3.28;;
50649;SDS011;36621;60.058;30.346;2023-07-13T19:32:46;5.38;;;2.42;;
50649;SDS011;36621;60.058;30.346;2023-07-13T19:40:19;9.85;;;3.10;;
50649;SDS011;36621;60.058;30.346;2023-07-13T19:47:52;5.72;;;2.95;;
50649;SDS011;36621;60.058;30.346;2023-07-13T19:55:25;8.07;;;2.92;;
50649;SDS011;36621;60.058;30.346;2023-07-13T20:02:58;8.57;;;3.13;;
50649;SDS011;36621;60.058;30.346;2023-07-13T20:10:31;6.13;;;2.60;;
50649;SDS011;36621;60.058;30.346;2023-07-13T20:18:04;8.93;;;3.15;;
50649;SDS011;36621;60.058;30.346;2023-07-13T20:25:37;5.00;;;3.10;;
50649;SDS011;36621;60.058;30.346;2023-07-13T20:33:12;10.00;;;4.20;;
50649;SDS011;36621;60.058;30.346;2023-07-13T20:48:26;8.77;;;4.65;;
50649;SDS011;36621;60.058;30.346;2023-07-13T20:56:01;5.43;;;3.08;;
50649;SDS011;36621;60.058;30.346;2023-07-13T21:03:40;7.57;;;3.22;;
50649;SDS011;36621;60.058;30.346;2023-07-13T21:11:14;6.45;;;3.28;;
50649;SDS011;36621;60.058;30.346;2023-07-13T21:18:46;5.00;;;3.10;;
50649;SDS011;36621;60.058;30.346;2023-07-13T21:26:20;8.98;;;3.20;;
50649;SDS011;36621;60.058;30.346;2023-07-13T21:33:53;6.78;;;3.03;;
50649;SDS011;36621;60.058;30.346;2023-07-13T21:41:29;7.88;;;3.30;;
50649;SDS011;36621;60.058;30.346;2023-07-13T21:49:03;4.75;;;3.33;;
50649;SDS011;36621;60.058;30.346;2023-07-13T21:56:36;9.65;;;2.83;;
50649;SDS011;36621;60.058;30.346;2023-07-13T22:04:09;6.22;;;3.35;;
50649;SDS011;36621;60.058;30.346;2023-07-13T22:11:45;8.55;;;3.65;;
50649;SDS011;36621;60.058;30.346;2023-07-13T22:19:18;10.65;;;3.53;;
50649;SDS011;36621;60.058;30.346;2023-07-13T22:27:01;8.45;;;3.83;;
50649;SDS011;36621;60.058;30.346;2023-07-13T22:34:33;9.30;;;3.92;;
50649;SDS011;36621;60.058;30.346;2023-07-13T22:42:07;7.13;;;3.83;;
50649;SDS011;36621;60.058;30.346;2023-07-13T22:49:41;7.57;;;3.60;;
50649;SDS011;36621;60.058;30.346;2023-07-13T22:57:14;8.32;;;4.28;;
50649;SDS011;36621;60.058;30.346;2023-07-13T23:04:46;8.18;;;4.50;;
50649;SDS011;36621;60.058;30.346;2023-07-13T23:12:20;9.50;;;4.38;;
50649;SDS011;36621;60.058;30.346;2023-07-13T23:19:52;9.43;;;4.20;;
50649;SDS011;36621;60.058;30.346;2023-07-13T23:27:25;12.93;;;5.43;;
50649;SDS011;36621;60.058;30.346;2023-07-13T23:34:57;28.83;;;5.05;;
50649;SDS011;36621;60.058;30.346;2023-07-13T23:42:30;36.92;;;6.25;;
50649;SDS011;36621;60.058;30.346;2023-07-13T23:50:04;40.42;;;5.93;;
50649;SDS011;36621;60.058;30.346;2023-07-13T23:57:42;37.90;;;5.85;;
